createdAt,value
2018-03-27T09:28:20.061Z,1.40
2018-03-27T09:29:20.010Z,1.40
2018-03-27T09:30:19.958Z,1.00
2018-03-27T09:31:19.907Z,1.40
2018-03-27T09:32:19.857Z,1.20
2018-03-27T09:33:19.800Z,1.20
2018-03-27T09:34:19.747Z,1.20
2018-03-27T09:35:19.715Z,1.30
2018-03-27T09:36:19.653Z,1.30
2018-03-27T09:37:19.594Z,1.20
2018-03-27T09:38:19.550Z,1.10
2018-03-27T09:39:19.493Z,1.40
2018-03-27T09:40:19.491Z,1.50
2018-03-27T09:41:19.387Z,1.40
2018-03-27T09:42:19.341Z,1.70
2018-03-27T09:43:19.284Z,1.70
2018-03-27T09:44:19.231Z,1.60
2018-03-27T09:45:19.189Z,1.60
2018-03-27T09:46:19.132Z,1.70
2018-03-27T09:47:19.079Z,1.70
2018-03-27T09:48:19.024Z,1.60
2018-03-27T09:49:18.970Z,1.50
2018-03-27T09:50:18.920Z,1.60
2018-03-27T09:51:18.866Z,1.60
2018-03-27T09:52:18.815Z,1.50
2018-03-27T09:53:18.762Z,1.60
2018-03-27T09:54:18.718Z,1.80
2018-03-27T09:55:18.657Z,1.60
2018-03-27T09:56:17.836Z,2.00
2018-03-27T09:57:17.764Z,2.20
2018-03-27T14:05:52.673Z,1.20
2018-03-27T14:06:52.599Z,1.10
2018-03-27T14:08:44.378Z,1.10
2018-03-27T14:09:44.330Z,1.10
2018-03-27T14:11:36.149Z,1.20
2018-03-27T14:12:36.052Z,1.30
2018-03-27T14:14:27.831Z,1.20
2018-03-27T14:15:27.774Z,1.10
2018-03-27T14:16:27.723Z,1.10
2018-03-27T14:17:27.669Z,1.30
2018-03-27T14:18:27.647Z,1.00
2018-03-27T14:19:27.573Z,1.20
2018-03-27T14:20:27.519Z,1.00
2018-03-27T14:21:27.463Z,1.10
2018-03-27T14:22:27.413Z,1.10
2018-03-27T14:23:27.358Z,1.00
2018-03-27T14:24:27.308Z,1.20
2018-03-27T14:25:27.260Z,1.00
2018-03-27T14:26:27.207Z,1.20
2018-03-27T14:27:27.155Z,1.20
2018-03-27T14:28:27.106Z,1.10
2018-03-27T14:29:27.052Z,1.10
2018-03-27T14:30:27.001Z,1.20
2018-03-27T14:31:26.951Z,1.40
2018-03-27T14:32:26.899Z,1.10
2018-03-27T14:33:26.845Z,1.00
2018-03-27T14:34:26.799Z,1.30
2018-03-27T14:35:26.744Z,1.20
2018-03-27T14:36:26.692Z,1.20
2018-03-27T14:37:26.648Z,1.20
2018-03-27T14:38:26.588Z,1.10
2018-03-27T14:39:26.537Z,1.10
2018-03-27T14:40:26.485Z,1.20
2018-03-27T14:41:26.436Z,1.00
2018-03-27T14:42:26.382Z,1.20
2018-03-27T14:43:26.334Z,1.20
2018-03-27T14:44:26.290Z,1.10
2018-03-27T14:45:26.242Z,1.30
2018-03-27T14:46:26.177Z,1.20
2018-03-27T14:48:01.226Z,1.30
2018-03-27T14:49:01.157Z,1.20
2018-03-27T14:50:01.099Z,1.30
2018-03-27T14:51:01.041Z,1.20
2018-03-27T14:53:11.032Z,1.90
